Historyczne dane pomiarowe

Dodano dane terminowe – wersja testowa.

Dane z okresu 1951-2019

Wersja bazy: 1.34 [2019-03-16, lista zmian], aktualizacja planowana na 2019-04-15

Dane meteo z obszaru Polski uzyskane na podstawie danych udostępnionych przez Instytut Meteorologii i Gospodarki Wodnej – Państwowy Instytut Badawczy.

 

Wybierz Datę:    

       

TemperaturaWilgotnośćWiatrCiśnienieOpadyŚniegCzas trwania zjawisk
 Stacja t tx tn tng RH VA  wxwx mslp ppp RRR   cm mm wxwxwxwxwxwxwx
1995-10-11 12.9 16.8 10.2- 33.0 4.9 0.4 4.6 0.0 0.0- 812.8 0.0 0.0 0.0- 0.0 10.4-------
1995-10-12 12.4 15.0 10.4- 31.4 4.5 1.6 4.8 0.0 0.0- 811.9 0.0 0.0 0.0- 0.0 10.4-------
1995-10-13 11.4 13.7 8.5- 24.5 3.4 0.8 6.9 0.0 0.0- 810.2 0.0 0.0 0.0- 0.0 10.4-------
1995-10-14 9.5 11.9 7.4- 33.0 4.0 0.1 5.6 0.0 0.0- 807.3 0.0 0.0 0.0- 0.0 10.5-------
1995-10-15 8.3 11.0 6.3- 37.8 4.2 0.1 5.4 0.0 0.0- 805.4 0.0 0.0 0.0- 0.0 10.2-------
1995-10-16 7.1 10.1 4.9- 44.5 4.5 1.8 3.9 0.0 0.0- 806.9 0.0 0.0 0.0- 0.0 9.6-------
1995-10-17 6.3 9.4 4.1- 57.3 5.5 3.1 2.0 0.0 0.0- 809.8 0.0 0.0 0.0- 0.0 10.2-------
1995-10-18 6.8 9.6 5.8- 44.9 4.4 3.3 6.4 4.6 0.0- 808.7 0.1 0.0 0.1- 0.0 9.8 2.0-- 2.5---
1995-10-19 3.5 7.5 0.8- 83.5 6.4 6.4 5.1 0.0 0.0- 807.2 0.0 0.0 0.0- 0.0 6.7--- 8.3---
1995-10-20 2.3 7.4 0.1- 89.6 6.4 7.5 7.5 6.9 0.0- 801.0 4.9 0.1 4.8- 0.0 2.9 2.9 0.9 0.8 11.2---
1995-10-21 -4.9 1.5 -6.7- 94.4 4.0 8.0 7.3 6.3 0.0- 800.0 0.3 0.0 0.3- 0.0 0.0- 0.4- 24.0---
1995-10-22 -4.9 -3.3 -8.6- 79.9 3.3 2.6 3.5 0.0 0.0- 805.3 0.0 0.0 0.0 1 0.0 10.6--- 5.7---
1995-10-23 2.4 4.3 -4.2- 16.8 1.3 1.9 5.6 0.0 0.0- 809.2 0.0 0.0 0.0- 0.0 9.1-------
1995-10-24 4.3 7.1 3.1- 19.4 1.6 0.5 5.9 4.8 0.0- 809.1 0.0 0.0 0.0- 0.0 9.8-------
1995-10-25 6.8 10.5 1.9- 12.9 1.2 0.0 4.5 3.5 0.0- 806.8 0.0 0.0 0.0- 0.0 9.7-------
1995-10-26 4.1 7.9 1.5- 44.0 3.7 0.6 3.6 0.0 0.0- 806.8 0.0 0.0 0.0- 0.0 9.6-------
1995-10-27 4.9 7.1 2.5- 38.8 3.3 0.5 1.5 0.0 0.0- 804.3 0.0 0.0 0.0- 0.0 9.5-------
1995-10-28 4.9 8.8 3.3- 71.8 6.2 5.3 2.0 0.0 0.0- 801.3 0.9 0.6 0.3- 0.0 4.8 4.1-- 6.2---
1995-10-29 2.2 4.0 0.8- 99.3 7.2 7.4 5.4 1.7 0.0- 799.4 4.8 2.6 2.2- 0.0 0.0 7.1-- 20.1---
1995-10-30 1.9 3.4 0.9-100.0 7.0 7.8 4.9 0.0 0.0- 799.9 1.0 0.0 1.0- 0.0 0.6 2.2-- 17.2---
1995-10-31 -1.0 1.2 -1.9- 98.9 5.6 7.3 3.5 0.0 0.0- 802.3 7.6 7.6 0.0- 0.0 0.7 5.2 6.3- 15.3---
1995-11-01 -3.2 -0.3 -4.9- 89.6 4.3 6.6 8.3 3.2 0.0- 792.9 1.5 0.9 0.6 2 0.0 0.0- 2.2- 4.9---
1995-11-02 -6.5 -4.4 -8.9- 93.3 3.6 7.9 2.9 0.0 0.0- 785.1 12.4 9.9 2.5 4 0.0 0.0- 18.3- 20.5---
1995-11-03 -7.7 -6.1-10.4- 91.8 3.1 7.6 8.6 5.8 0.0- 778.7 15.1 1.1 14.0 10- 0.2- 13.8- 21.5---
1995-11-04-12.4 -6.5-14.5- 91.9 2.2 8.0 7.4 7.2 0.0- 781.2 47.1 18.9 28.2 30- 0.0- 24.0- 24.0---
1995-11-05-13.9-12.0-14.5- 91.8 1.9 8.0 8.6 8.3 0.0- 793.5 15.5 11.1 4.4 80 1.6 0.0- 22.8- 24.0---
1995-11-06-11.8 -9.7-14.1- 92.9 2.3 8.0 11.9 18.0 2.3- 791.6 30.1 16.6 13.5 92- 0.0- 20.9- 24.0---
1995-11-07-10.4 -6.5-12.5- 93.8 2.7 8.0 10.3 14.8 0.0- 787.8 32.8 20.1 12.7110- 0.0- 20.6- 24.0---
1995-11-08-13.9-12.2-14.9- 92.0 1.9 8.0 9.0 8.8 0.0- 790.4 8.3 5.2 3.1124- 0.0- 20.9- 24.0---
1995-11-09-11.2 -7.2-14.5- 76.3 2.0 4.6 6.6 1.0 0.0- 792.4 0.2 0.2 0.0131- 6.2- 2.7- 11.8---
168.5 ms

 

Źródłem pochodzenia danych jest Instytut Meteorologii i Gospodarki Wodnej – Państwowy Instytut Badawczy. Dane Instytutu Meteorologii i Gospodarki Wodnej – Państwowego Instytutu Badawczego zostały przetworzone.

Dane źródłowe można odnaleźć na stronie https://dane.imgw.pl